createdAt,value
2022-12-15T00:00:30.568Z,4.43
2022-12-15T00:03:16.097Z,4.27
2022-12-15T00:06:02.280Z,4.00
2022-12-15T00:08:49.349Z,4.18
2022-12-15T00:11:35.056Z,3.97
2022-12-15T00:14:20.407Z,4.38
2022-12-15T00:17:05.801Z,3.95
2022-12-15T00:19:51.356Z,4.32
2022-12-15T00:22:37.026Z,4.43
2022-12-15T00:25:25.109Z,4.10
2022-12-15T00:28:10.650Z,4.47
2022-12-15T00:31:01.925Z,4.68
2022-12-15T00:33:47.968Z,4.53
2022-12-15T00:36:33.696Z,3.90
2022-12-15T00:39:04.063Z,4.00
2022-12-15T00:41:34.050Z,4.60
2022-12-15T00:44:02.328Z,4.40
2022-12-15T00:46:48.041Z,4.10
2022-12-15T00:49:30.181Z,4.00
2022-12-15T00:52:15.942Z,3.63
2022-12-15T00:55:01.614Z,4.47
2022-12-15T00:57:48.785Z,3.90
2022-12-15T01:00:34.259Z,4.00
2022-12-15T01:03:20.072Z,3.90
2022-12-15T01:06:05.736Z,3.90
2022-12-15T01:08:51.569Z,4.05
2022-12-15T01:11:37.395Z,3.78
2022-12-15T01:14:24.434Z,3.38
2022-12-15T01:17:10.377Z,3.58
2022-12-15T01:19:55.981Z,3.95
2022-12-15T01:22:24.742Z,3.13
2022-12-15T01:24:53.069Z,4.00
2022-12-15T01:27:21.377Z,3.72
2022-12-15T01:29:51.022Z,3.55
2022-12-15T01:32:19.586Z,3.65
2022-12-15T01:34:47.876Z,4.43
2022-12-15T01:37:16.322Z,4.05
2022-12-15T01:39:58.361Z,4.13
2022-12-15T01:42:26.673Z,3.70
2022-12-15T01:45:42.528Z,4.18
2022-12-15T01:48:16.368Z,4.13
2022-12-15T01:50:47.986Z,4.05
2022-12-15T01:53:18.175Z,3.85
2022-12-15T01:55:49.779Z,4.20
2022-12-15T01:58:19.989Z,4.43
2022-12-15T02:00:49.724Z,4.38
2022-12-15T02:03:18.203Z,4.35
2022-12-15T02:05:47.843Z,4.53
2022-12-15T02:08:16.154Z,4.57
2022-12-15T02:11:04.046Z,4.40
2022-12-15T02:13:41.564Z,4.38
2022-12-15T02:16:20.659Z,4.28
2022-12-15T02:19:00.269Z,4.30
2022-12-15T02:21:33.437Z,4.50
2022-12-15T02:24:24.692Z,4.68
2022-12-15T02:27:17.038Z,4.35
2022-12-15T02:30:19.924Z,4.28
2022-12-15T02:32:59.598Z,4.97
2022-12-15T02:35:31.928Z,4.32
2022-12-15T02:38:00.183Z,4.15
2022-12-15T02:40:28.521Z,4.03
2022-12-15T02:43:01.422Z,3.90
2022-12-15T02:45:37.538Z,3.55
2022-12-15T02:48:17.622Z,4.10
2022-12-15T02:50:58.338Z,3.45
2022-12-15T02:53:42.987Z,3.70
2022-12-15T02:56:19.251Z,3.75
2022-12-15T02:58:55.518Z,3.50
2022-12-15T03:01:31.561Z,3.38
2022-12-15T03:04:02.532Z,3.60
2022-12-15T03:06:30.947Z,3.20
2022-12-15T03:08:59.176Z,3.65
2022-12-15T03:11:27.675Z,3.30
2022-12-15T03:13:56.100Z,3.60
2022-12-15T03:16:25.818Z,3.45
2022-12-15T03:18:54.402Z,3.20
2022-12-15T03:21:22.661Z,3.35
2022-12-15T03:23:50.883Z,3.17
2022-12-15T03:26:19.302Z,3.60
2022-12-15T03:28:47.723Z,3.90
2022-12-15T03:31:16.001Z,4.00
2022-12-15T03:33:45.745Z,3.70
2022-12-15T03:36:14.035Z,3.97
2022-12-15T03:38:42.311Z,4.00
2022-12-15T03:41:10.818Z,3.88
2022-12-15T03:43:39.090Z,3.55
2022-12-15T03:46:07.495Z,3.50
2022-12-15T03:48:35.842Z,3.80
2022-12-15T03:51:05.573Z,3.25
2022-12-15T03:53:34.251Z,3.90
2022-12-15T03:56:02.640Z,3.47
2022-12-15T03:58:31.003Z,3.42
2022-12-15T04:00:59.345Z,3.40
2022-12-15T04:03:28.366Z,3.60
2022-12-15T04:05:57.014Z,3.78
2022-12-15T04:08:26.870Z,3.50
2022-12-15T04:10:55.180Z,3.85
2022-12-15T04:13:23.507Z,3.60
2022-12-15T04:15:51.765Z,3.92
2022-12-15T04:18:20.037Z,3.15
2022-12-15T04:20:47.275Z,3.58
2022-12-15T04:23:18.724Z,3.30
2022-12-15T04:26:05.731Z,3.35
2022-12-15T04:28:51.108Z,3.10
2022-12-15T04:31:40.833Z,3.80
2022-12-15T04:34:31.279Z,3.35
2022-12-15T04:37:17.305Z,3.47
2022-12-15T04:40:06.371Z,2.87
2022-12-15T04:42:55.296Z,3.28
2022-12-15T04:45:43.953Z,3.20
2022-12-15T04:48:30.274Z,3.47
2022-12-15T04:51:16.084Z,3.30
2022-12-15T04:54:02.909Z,3.15
2022-12-15T04:56:50.004Z,3.22
2022-12-15T04:59:37.447Z,3.08
2022-12-15T05:02:23.374Z,2.72
2022-12-15T05:05:08.701Z,3.20
2022-12-15T05:07:54.572Z,2.83
2022-12-15T05:10:40.219Z,3.00
2022-12-15T05:13:27.235Z,3.40
2022-12-15T05:16:14.588Z,2.70
2022-12-15T05:19:00.034Z,2.92
2022-12-15T05:21:45.594Z,2.92
2022-12-15T05:24:31.107Z,2.88
2022-12-15T05:27:16.493Z,2.92
2022-12-15T05:30:02.228Z,2.70
2022-12-15T05:32:33.306Z,3.00
2022-12-15T05:35:02.476Z,2.88
2022-12-15T05:37:30.707Z,2.55
2022-12-15T05:39:58.951Z,2.65
2022-12-15T05:42:27.163Z,2.47
2022-12-15T05:44:55.405Z,2.60
2022-12-15T05:47:23.617Z,2.30
2022-12-15T05:49:53.288Z,2.88
2022-12-15T05:52:21.511Z,2.53
2022-12-15T05:54:49.856Z,2.60
2022-12-15T05:57:18.231Z,2.97
2022-12-15T05:59:46.484Z,2.67
2022-12-15T06:02:14.835Z,2.60
2022-12-15T06:04:43.169Z,2.13
2022-12-15T06:07:12.878Z,2.58
2022-12-15T06:09:41.111Z,2.05
2022-12-15T06:12:09.406Z,2.70
2022-12-15T06:14:37.803Z,2.50
2022-12-15T06:17:06.238Z,2.55
2022-12-15T06:19:34.500Z,2.22
2022-12-15T06:22:02.773Z,2.58
2022-12-15T06:24:32.413Z,2.17
2022-12-15T06:27:00.759Z,2.00
2022-12-15T06:29:29.279Z,1.95
2022-12-15T06:31:57.908Z,2.47
2022-12-15T06:34:26.764Z,2.30
2022-12-15T06:36:55.132Z,2.13
2022-12-15T06:39:23.538Z,2.20
2022-12-15T06:41:53.253Z,2.15
2022-12-15T06:44:21.766Z,1.70
2022-12-15T06:46:49.987Z,1.85
2022-12-15T06:49:18.278Z,2.03
2022-12-15T06:51:46.607Z,1.60
2022-12-15T06:54:14.825Z,2.05
2022-12-15T06:56:43.510Z,2.05
2022-12-15T06:59:14.714Z,2.38
2022-12-15T07:01:43.506Z,2.20
2022-12-15T07:04:12.255Z,2.40
2022-12-15T07:06:42.482Z,2.00
2022-12-15T07:09:16.053Z,2.00
2022-12-15T07:11:45.325Z,2.33
2022-12-15T07:14:15.933Z,2.05
2022-12-15T07:16:45.591Z,2.13
2022-12-15T07:19:14.188Z,2.40
2022-12-15T07:21:42.834Z,2.45
2022-12-15T07:24:13.227Z,2.28
2022-12-15T07:26:41.764Z,2.55
2022-12-15T07:29:11.964Z,2.00
2022-12-15T07:31:41.757Z,2.25
2022-12-15T07:34:10.157Z,2.15
2022-12-15T07:36:38.532Z,2.50
2022-12-15T07:39:08.360Z,2.17
2022-12-15T07:41:36.764Z,2.25
2022-12-15T07:44:06.280Z,2.10
2022-12-15T07:46:34.628Z,2.10
2022-12-15T07:49:04.297Z,2.40
2022-12-15T07:51:32.856Z,2.08
2022-12-15T07:54:01.350Z,2.10
2022-12-15T07:56:33.215Z,2.45
2022-12-15T07:59:04.240Z,1.90
2022-12-15T08:01:32.613Z,1.90
2022-12-15T08:04:01.024Z,1.80
2022-12-15T08:06:30.855Z,2.15
2022-12-15T08:08:59.550Z,1.88
2022-12-15T08:11:27.815Z,1.85
2022-12-15T08:14:04.958Z,1.90
2022-12-15T08:16:34.698Z,1.90
2022-12-15T08:19:03.587Z,2.38
2022-12-15T08:21:33.373Z,1.90
2022-12-15T08:24:02.014Z,2.17
2022-12-15T08:26:31.595Z,2.00
2022-12-15T08:29:48.862Z,1.70
2022-12-15T08:31:54.048Z,1.90
2022-12-15T08:34:22.575Z,1.63
2022-12-15T08:36:52.300Z,2.00
2022-12-15T08:39:20.649Z,1.98
2022-12-15T08:41:49.102Z,2.53
2022-12-15T08:44:17.522Z,2.20
2022-12-15T08:46:45.833Z,2.40
2022-12-15T08:49:18.079Z,2.03
2022-12-15T08:51:51.536Z,2.08
2022-12-15T08:54:21.379Z,2.00
2022-12-15T08:56:50.468Z,2.50
2022-12-15T08:59:19.526Z,2.53
2022-12-15T09:01:48.108Z,2.20
2022-12-15T09:04:16.962Z,2.33
2022-12-15T09:06:50.347Z,2.90
2022-12-15T09:09:21.273Z,2.50
2022-12-15T09:11:50.051Z,2.10
2022-12-15T09:14:25.494Z,2.40
2022-12-15T09:16:57.102Z,2.33
2022-12-15T09:19:25.562Z,2.45
2022-12-15T09:21:53.856Z,2.50
2022-12-15T09:24:33.874Z,2.63
2022-12-15T09:27:03.371Z,2.60
2022-12-15T09:29:32.014Z,2.13
2022-12-15T09:32:00.538Z,2.35
2022-12-15T09:34:29.132Z,2.30
2022-12-15T09:36:57.891Z,2.85
2022-12-15T09:39:27.747Z,2.28
2022-12-15T09:41:59.942Z,2.47
2022-12-15T09:44:32.973Z,2.53
2022-12-15T09:47:17.086Z,2.45
2022-12-15T09:49:55.655Z,2.08
2022-12-15T09:52:27.845Z,2.28
2022-12-15T09:54:58.267Z,2.30
2022-12-15T09:57:38.817Z,2.17
2022-12-15T10:00:16.880Z,2.53
2022-12-15T10:03:11.075Z,2.05
2022-12-15T10:06:17.338Z,2.15
2022-12-15T10:08:50.917Z,2.08
2022-12-15T10:11:26.240Z,2.30
2022-12-15T10:14:00.346Z,2.10
2022-12-15T10:16:34.116Z,1.90
2022-12-15T10:19:10.470Z,1.90
2022-12-15T10:21:39.147Z,2.40
2022-12-15T10:24:31.413Z,2.30
2022-12-15T10:27:23.840Z,1.65
2022-12-15T10:30:01.299Z,1.90
2022-12-15T10:32:42.814Z,1.73
2022-12-15T10:35:17.563Z,1.95
2022-12-15T10:37:45.895Z,2.00
2022-12-15T10:40:20.537Z,2.00
2022-12-15T10:42:51.676Z,2.08
2022-12-15T10:45:35.994Z,2.50
2022-12-15T10:48:06.757Z,2.10
2022-12-15T10:50:36.453Z,1.77
2022-12-15T10:53:10.575Z,1.80
2022-12-15T10:55:41.187Z,1.98
2022-12-15T10:58:19.629Z,3.20
2022-12-15T11:00:50.964Z,4.20
2022-12-15T11:03:40.571Z,3.40
2022-12-15T11:06:16.160Z,1.88
2022-12-15T11:08:47.411Z,2.00
2022-12-15T11:11:45.537Z,1.60
2022-12-15T11:14:19.124Z,1.75
2022-12-15T11:16:52.179Z,2.15
2022-12-15T11:19:32.612Z,2.08
2022-12-15T11:22:06.193Z,1.75
2022-12-15T11:24:41.166Z,1.85
2022-12-15T11:27:18.465Z,1.52
2022-12-15T11:29:58.609Z,1.83
2022-12-15T11:32:29.738Z,1.40
2022-12-15T11:34:58.413Z,2.05
2022-12-15T11:37:39.513Z,1.42
2022-12-15T11:40:40.180Z,1.75
2022-12-15T11:43:32.062Z,1.63
2022-12-15T11:46:19.972Z,1.67
2022-12-15T11:49:03.073Z,1.65
2022-12-15T11:51:41.818Z,1.63
2022-12-15T11:54:19.789Z,1.88
2022-12-15T11:56:51.992Z,1.75
2022-12-15T11:59:53.195Z,1.38
2022-12-15T12:02:42.619Z,1.63
2022-12-15T12:05:28.501Z,1.77
2022-12-15T12:08:09.197Z,2.00
2022-12-15T12:10:48.914Z,1.40
2022-12-15T12:13:28.040Z,1.60
2022-12-15T12:16:05.760Z,1.80
2022-12-15T12:18:39.274Z,1.85
2022-12-15T12:21:11.895Z,2.05
2022-12-15T12:23:44.495Z,1.60
2022-12-15T12:26:18.131Z,1.52
2022-12-15T12:28:50.377Z,1.53
2022-12-15T12:31:27.570Z,1.35
2022-12-15T12:34:03.763Z,1.70
2022-12-15T12:36:32.057Z,1.70
2022-12-15T12:39:01.148Z,1.50
2022-12-15T12:41:42.948Z,1.73
2022-12-15T12:44:18.205Z,1.80
2022-12-15T12:46:50.722Z,2.03
2022-12-15T12:49:28.690Z,2.50
2022-12-15T12:51:59.845Z,2.63
2022-12-15T12:54:50.304Z,2.55
2022-12-15T12:57:39.367Z,3.33
2022-12-15T13:00:21.462Z,3.63
2022-12-15T13:03:16.430Z,4.20
2022-12-15T13:05:50.401Z,4.30
2022-12-15T13:08:52.552Z,3.40
2022-12-15T13:11:56.862Z,3.25
2022-12-15T13:14:48.226Z,3.40
2022-12-15T13:17:27.536Z,4.32
2022-12-15T13:20:26.794Z,6.53
2022-12-15T13:23:17.997Z,4.45
2022-12-15T13:25:51.763Z,4.10
2022-12-15T13:28:32.510Z,5.03
2022-12-15T13:31:33.561Z,3.22
2022-12-15T13:34:23.722Z,3.10
2022-12-15T13:36:57.026Z,3.10
2022-12-15T13:39:59.326Z,3.08
2022-12-15T13:42:40.751Z,3.72
2022-12-15T13:45:50.704Z,3.20
2022-12-15T13:48:38.647Z,2.55
2022-12-15T13:51:33.327Z,2.72
2022-12-15T13:54:05.625Z,2.30
2022-12-15T13:56:47.481Z,2.70
2022-12-15T13:59:27.358Z,2.63
2022-12-15T14:01:56.243Z,2.45
2022-12-15T14:04:24.797Z,2.83
2022-12-15T14:06:55.783Z,2.50
2022-12-15T14:09:29.633Z,2.55
2022-12-15T14:12:00.090Z,2.15
2022-12-15T14:14:31.411Z,2.35
2022-12-15T14:17:01.897Z,2.83
2022-12-15T14:19:39.994Z,2.50
2022-12-15T14:25:17.591Z,2.50
2022-12-15T14:27:50.746Z,2.60
2022-12-15T14:30:29.521Z,2.47
2022-12-15T14:33:01.581Z,2.38
2022-12-15T14:35:32.440Z,2.63
2022-12-15T14:38:03.680Z,3.03
2022-12-15T14:40:34.805Z,2.50
2022-12-15T14:43:05.995Z,2.50
2022-12-15T14:45:34.388Z,2.90
2022-12-15T14:51:01.038Z,2.50
2022-12-15T14:53:34.902Z,2.30
2022-12-15T14:59:21.383Z,3.30
2022-12-15T15:01:58.745Z,3.13
2022-12-15T15:03:06.093Z,2.70
2022-12-15T15:04:31.321Z,3.38
2022-12-15T15:07:03.425Z,3.97
2022-12-15T15:09:34.726Z,3.67
2022-12-15T15:12:06.387Z,4.57
2022-12-15T15:14:42.260Z,4.35
2022-12-15T15:17:22.227Z,4.13
2022-12-15T15:19:53.712Z,3.58
2022-12-15T15:22:32.394Z,3.88
2022-12-15T15:25:01.001Z,3.88
2022-12-15T15:27:36.827Z,3.85
2022-12-15T15:30:22.248Z,5.00
2022-12-15T15:32:56.164Z,5.88
2022-12-15T15:35:26.596Z,7.40
2022-12-15T15:37:58.399Z,6.28
2022-12-15T15:40:26.806Z,3.78
2022-12-15T15:42:55.591Z,3.88
2022-12-15T15:45:25.642Z,3.90
2022-12-15T15:47:56.265Z,4.25
2022-12-15T15:50:30.816Z,4.40
2022-12-15T15:52:59.721Z,3.97
2022-12-15T15:55:37.819Z,4.85
2022-12-15T15:58:12.190Z,5.30
2022-12-15T16:00:41.949Z,5.40
2022-12-15T16:03:10.916Z,6.55
2022-12-15T16:05:40.761Z,5.43
2022-12-15T16:08:13.904Z,5.35
2022-12-15T16:10:45.367Z,5.25
2022-12-15T16:13:14.149Z,4.45
2022-12-15T16:15:44.907Z,6.93
2022-12-15T16:18:13.434Z,6.80
2022-12-15T16:20:44.575Z,7.40
2022-12-15T16:23:16.896Z,9.98
2022-12-15T16:25:50.839Z,9.40
2022-12-15T16:28:22.122Z,10.75
2022-12-15T16:30:52.376Z,10.82
2022-12-15T16:33:20.726Z,11.02
2022-12-15T16:35:50.621Z,10.82
2022-12-15T16:38:24.002Z,12.23
2022-12-15T16:40:52.809Z,12.90
2022-12-15T16:43:25.652Z,13.38
2022-12-15T16:45:57.107Z,8.95
2022-12-15T16:48:25.857Z,6.65
2022-12-15T16:50:56.146Z,4.20
2022-12-15T16:53:27.587Z,3.90
2022-12-15T16:55:57.445Z,3.95
2022-12-15T16:58:26.619Z,4.88
2022-12-15T17:00:56.516Z,5.30
2022-12-15T17:03:26.152Z,7.47
2022-12-15T17:05:56.988Z,8.77
2022-12-15T17:08:28.986Z,9.82
2022-12-15T17:10:57.644Z,9.95
2022-12-15T17:13:37.790Z,8.70
2022-12-15T17:16:15.090Z,9.15
2022-12-15T17:18:44.626Z,9.90
2022-12-15T17:21:17.783Z,13.32
2022-12-15T17:23:49.820Z,15.27
2022-12-15T17:26:28.695Z,13.98
2022-12-15T17:29:01.433Z,11.43
2022-12-15T17:31:35.793Z,11.48
2022-12-15T17:34:23.261Z,13.25
2022-12-15T17:36:52.042Z,8.98
2022-12-15T17:39:22.100Z,10.77
2022-12-15T17:42:05.933Z,7.93
2022-12-15T17:44:38.198Z,6.35
2022-12-15T17:47:09.683Z,8.05
2022-12-15T17:49:39.238Z,7.43
2022-12-15T17:52:28.676Z,10.15
2022-12-15T17:54:57.776Z,10.35
2022-12-15T17:57:26.183Z,9.88
2022-12-15T17:59:54.965Z,10.38
2022-12-15T18:02:24.912Z,13.80
2022-12-15T18:04:54.212Z,12.68
2022-12-15T18:07:24.773Z,11.18
2022-12-15T18:09:54.292Z,8.82
2022-12-15T18:12:25.408Z,9.05
2022-12-15T18:14:54.383Z,12.13
2022-12-15T18:17:24.426Z,15.25
2022-12-15T18:19:52.814Z,9.27
2022-12-15T18:22:23.454Z,11.60
2022-12-15T18:24:54.136Z,16.23
2022-12-15T18:27:24.922Z,17.50
2022-12-15T18:29:53.687Z,12.43
2022-12-15T18:32:25.866Z,17.60
2022-12-15T18:34:54.812Z,19.88
2022-12-15T18:37:25.769Z,21.08
2022-12-15T18:39:57.119Z,16.00
2022-12-15T18:42:29.374Z,15.93
2022-12-15T18:45:00.431Z,11.75
2022-12-15T18:47:30.124Z,11.70
2022-12-15T18:49:58.511Z,13.63
2022-12-15T18:52:33.014Z,10.47
2022-12-15T18:55:02.996Z,11.93
2022-12-15T18:57:33.587Z,13.50
2022-12-15T19:00:08.074Z,13.20
2022-12-15T19:02:37.980Z,13.57
2022-12-15T19:05:07.073Z,14.18
2022-12-15T19:07:36.874Z,11.25
2022-12-15T19:10:05.658Z,15.68
2022-12-15T19:12:34.072Z,11.73
2022-12-15T19:15:02.853Z,11.13
2022-12-15T19:17:48.512Z,10.00
2022-12-15T19:20:37.971Z,10.50
2022-12-15T19:23:06.835Z,9.75
2022-12-15T19:25:35.406Z,9.07
2022-12-15T19:28:03.682Z,12.73
2022-12-15T19:30:40.129Z,13.25
2022-12-15T19:33:10.434Z,13.50
2022-12-15T19:35:41.343Z,10.88
2022-12-15T19:38:15.901Z,10.98
2022-12-15T19:40:44.162Z,11.43
2022-12-15T19:43:16.460Z,11.18
2022-12-15T19:45:45.155Z,11.52
2022-12-15T19:48:15.017Z,9.35
2022-12-15T19:50:50.672Z,9.43
2022-12-15T19:53:25.683Z,9.70
2022-12-15T19:55:55.976Z,9.05
2022-12-15T19:58:28.469Z,8.95
2022-12-15T20:00:58.785Z,9.45
2022-12-15T20:03:28.797Z,9.10
2022-12-15T20:06:00.016Z,11.65
2022-12-15T20:08:31.117Z,12.07
2022-12-15T20:11:01.163Z,11.07
2022-12-15T20:13:29.828Z,10.32
2022-12-15T20:15:58.435Z,10.20
2022-12-15T20:18:26.782Z,10.25
2022-12-15T20:20:55.754Z,10.70
2022-12-15T20:23:27.561Z,10.60
2022-12-15T20:25:57.376Z,9.52
2022-12-15T20:28:27.950Z,8.45
2022-12-15T20:30:57.510Z,8.13
2022-12-15T20:33:26.031Z,10.95
2022-12-15T20:35:55.159Z,10.68
2022-12-15T20:38:31.568Z,10.95
2022-12-15T20:41:01.246Z,10.15
2022-12-15T20:43:32.531Z,9.77
2022-12-15T20:46:06.211Z,13.00
2022-12-15T20:48:36.683Z,18.17
2022-12-15T20:51:09.239Z,18.95
2022-12-15T20:53:40.076Z,18.02
2022-12-15T20:56:09.038Z,12.00
2022-12-15T20:58:41.205Z,14.48
2022-12-15T21:01:24.825Z,13.50
2022-12-15T21:03:56.645Z,14.40
2022-12-15T21:06:26.622Z,11.88
2022-12-15T21:08:56.718Z,13.88
2022-12-15T21:11:27.349Z,12.65
2022-12-15T21:14:03.738Z,13.23
2022-12-15T21:16:33.097Z,9.85
2022-12-15T21:19:21.385Z,12.87
2022-12-15T21:24:43.652Z,11.32
2022-12-15T21:27:14.280Z,11.73
2022-12-15T21:29:46.079Z,9.27
2022-12-15T21:32:18.810Z,10.80
2022-12-15T21:34:47.062Z,11.35
2022-12-15T21:37:24.962Z,10.50
2022-12-15T21:39:55.515Z,10.93
2022-12-15T21:42:24.355Z,9.65
2022-12-15T21:44:53.022Z,10.00
2022-12-15T21:47:25.996Z,13.30
2022-12-15T21:49:53.463Z,11.27
2022-12-15T21:52:25.768Z,10.87
2022-12-15T21:54:55.828Z,9.93
2022-12-15T21:57:24.046Z,11.57
2022-12-15T21:59:52.383Z,11.15
2022-12-15T22:02:25.742Z,12.20
2022-12-15T22:04:54.829Z,11.83
2022-12-15T22:07:23.493Z,12.90
2022-12-15T22:09:51.887Z,14.10
2022-12-15T22:12:23.698Z,12.10
2022-12-15T22:14:52.191Z,11.13
2022-12-15T22:17:22.801Z,12.68
2022-12-15T22:19:51.073Z,14.15
2022-12-15T22:22:20.306Z,11.57
2022-12-15T22:24:48.693Z,11.98
2022-12-15T22:27:22.154Z,11.65
2022-12-15T22:29:51.413Z,12.68
2022-12-15T22:32:19.677Z,12.93
2022-12-15T22:34:48.118Z,12.10
2022-12-15T22:37:16.334Z,12.98
2022-12-15T22:39:44.593Z,14.43
2022-12-15T22:42:17.859Z,13.55
2022-12-15T22:44:47.763Z,13.20
2022-12-15T22:47:16.088Z,13.07
2022-12-15T22:49:44.716Z,13.70
2022-12-15T22:52:18.127Z,13.43
2022-12-15T22:54:46.461Z,12.93
2022-12-15T22:57:21.994Z,13.07
2022-12-15T23:00:00.547Z,13.60
2022-12-15T23:02:30.120Z,13.45
2022-12-15T23:04:58.625Z,11.80
2022-12-15T23:07:27.207Z,12.23
2022-12-15T23:10:16.970Z,13.82
2022-12-15T23:12:44.275Z,14.60
2022-12-15T23:15:31.902Z,13.18
2022-12-15T23:18:00.324Z,12.63
2022-12-15T23:20:28.631Z,12.60
2022-12-15T23:22:56.872Z,27.95
2022-12-15T23:25:25.296Z,13.02
2022-12-15T23:27:53.685Z,12.45
2022-12-15T23:30:25.443Z,12.55
2022-12-15T23:32:55.463Z,12.68
2022-12-15T23:35:24.287Z,11.65
2022-12-15T23:37:52.545Z,10.88
2022-12-15T23:40:22.275Z,11.67
2022-12-15T23:42:51.223Z,12.00
2022-12-15T23:45:20.585Z,12.38
2022-12-15T23:47:50.311Z,11.57
2022-12-15T23:50:19.302Z,11.55
2022-12-15T23:52:51.268Z,11.63
2022-12-15T23:55:20.630Z,12.07
2022-12-15T23:57:48.907Z,12.43
